Aruba, Aruba

12:59 PM AST on August 27, 2016 (GMT -0400)
Oranjestad-Reina Beatrix International | | Change Station

Elev 59 ft 12.50 °N, 70.02 °W | Updated 59 minutes ago

Partly Cloudy
Partly Cloudy
86 °F
Feels Like 102 °F
N
14
Wind Variable Wind from SE

Today
High -- | Low -- °F
--% Chance of Precip.
Yesterday
High -- | Low -- °F
Precip. -- in
Pressure 29.89 in
Visibility 6.2 miles
Clouds Few 2200 ft
Heat Index 102 °F
Dew Point 81 °F
Humidity 84%
Rainfall 0.00 in
Snow Depth Not available.
6:29 AM 6:53 PM
Waning Crescent, 23% visible
METAR TNCA 271600Z 14012KT 110V170 9999 FEW022 30/27 Q1012 A2989 NOSIG
Pressure 29.89 in
Visibility 6.2 miles
Clouds Few 2200 ft
Heat Index 102 °F
Dew Point 81 °F
Humidity 84%
Rainfall 0.00 in
Snow Depth Not available.
6:29 AM 6:53 PM
Waning Crescent, 23% visible
METAR TNCA 271600Z 14012KT 110V170 9999 FEW022 30/27 Q1012 A2989 NOSIG

10-Day Weather Forecast

No radar image for this location.
×

Almanac

Astronomy

Aug. 27, 2016 Rise Set
Actual Time
Civil Twilight
Nautical Twilight
Astronomical Twilight
Moon
Length of Visible Light
Length of Day
Tomorrow will be .
, % of the Moon is Illuminated

Today's Extremes

Country Highs Country Lows

Community

WunderPhotos

Upload Photos

1,935,377 photos uploaded!

WunderBlog® & News

Nearby

Air Quality

  Air Quality AQ Index Pollutant
Not available.

Snow Depth

Station Depth Elevation

Earthquake Activity

City Distance Mag. Time & Date
Minimum magnitude displayed is 2.5.

Coastal Water Temperatures

Place Temperature

Stations

Nearby Weather Stations

Station Location Temp. Windchill Dew Point Humidity Wind Precip. Elev Updated Type